Abeche Airport

FTTC · Ouadaï, 乍得

METAR FTTC · Abeche Airport

23 五月 00:00 LT
58m
使用的METAR站距离机场658 km。
罗盘
风向 的 风向 160° Abeche Airport 9/27
风: 4 kt, 2 beaufort

1 kt

4 kt
改变
0 ft 1.000 2.000 3.000 4.000 5.000
没有观察到明显的云
METAR FTTJ 222300Z 16004KT 3500 DU NSC 32/08 Q1006 NOSIG

METAR Abeche Airport - FTTC/AEH

Abeche Airport是,乍得中的中型机场。 该机场位于纬度13,84745和经度20,84325。 该机场有一条跑道: 9/27. 本场的ICAO机场代码为FTTC。 该机场的IATA代码为AEH。 机场在N Djamena FIR中。

该航空气象观测是针对N'Djamena International Airport在2024年5月23日 00:00, 当地时间进行的。

机场观察

风向为160°,速度为4 kt。

可见度为3,5 km。

有没有观察到明显的云。 没有观察到天花板。

当前天气为尘土飞扬。 温度和风寒是32 °C。 露点为8 °C,相对湿度为22%。 海平面上的气压为1006 hPa (QNH)。

白天

今天,太阳从05:08升起,在17:58降落。 这适用于Abeche Airport,世界夏令时可能有所不同。 当地时间与世界标准时间之间的时差为+1 小时。 夏令时目前正在进行中。

公司介绍

我们没有关于这个机场的公司信息。

体会

到Vliegles.nl去找飞行课程,跳伞和其他飞行体验。 浏览页面,了解Abeche Airport附近所有可用的活动。 你也可以使用搜索功能来寻找你所在地附近的特定飞行课程、跳伞或其他飞行体验。

跑道

Id 标题 侧风 逆风 侧风 %
9/27 090°-270° 4 kt 1 kt 94 %

逆风成分最大的方向会被突出显示,并用于横风计算。 这并不一定意味着这个方向在使用。

乌云

- NSC 没有观察到明显的云

温度 & 天气

天气 尘土飞扬
温度 32 °C
露点 8 °C
相对湿度 22%
Kp-index 2 (0-9)

白天

日出
05:34 (4:36)
中午
11:56
日落
18:18

小工具

你想在你的网站上有一个关于Abeche Airport的当前航空天气(METAR)的小部件吗?

显示HTML代码
报告变更